BIENTÔT MET'MAP
version 2.0 !

Prévue avant fin octobre,
la nouvelle version sera
plus belle, plus complète
et hébergée sur un serveur
3 fois plus puissant...
et toujours gratuite !


Pas compatible ?
Essayez la version Mobile !

SE CONNECTER : | S'inscrire | Disclaimer | Découvrir Orbifly |
Code OACI :

TAF - LGMT Odysseas Elytis - 27 May 2020 05:11 UTC - Data Source NOAA   


- Altitude de l'aérodrome : 60 ft
- Code IATA : MJT
- Pas de NOTAMs connus.


LGMT - Odysseas Elytis

Dernier METAR connu : 2015/08/11 07:50 LGMT 110750Z 00000KT CAVOK 28/20 Q1011
TAF TAF LGMT
Valide du 27 à 03h jusqu'au 27 à 12h UTC


270200Z 2703/2712 36015KT 9999 SCT020 SCT040
TEMPO 2704/2712 04015G25KT
PROB40
TEMPO 2703/2712 5000 RA FEW018TCU BKN025
PROB30 2703/2712 3000 TSRA SCT015 FEW018CB BKN020

Source NOAA


MET'MAP, la Météo Aéronautique d'un coup d'oeil ! - Copyright ORBIFLY Décembre 2007

Développement & Programmation : Alexandra Zaïnal
Co-Développement : Marc-Olivier Méhu
Soutien technique & logistique : Manuel Goepfert
Conception & Financement : Baudouin d'Aumeries